Terminal Aerodrome Forecast
Issued by NWS

Home | Current Version | Previous Version | Text Only | Print | Product List | Glossary On
Versions: 1 2 3 4 5 6 7 8 9 10 11 12 13 14 15 16 17 18 19 20 21 22
000
FTUS45 KPSR 221100
TAFIWA
TAF
KIWA 221120Z 2212/2312 13004KT P6SM FEW250
     FM221800 28007KT P6SM SCT150 BKN250
     FM230500 13005KT P6SM BKN150 BKN250
      AMD LTD TO CLD VIS AND WIND TIL 221300=

USA.gov is the U.S. government's official web portal to all federal, state and local government web resources and services.